createdAt,value
2022-10-06T00:01:19.818Z,2.60
2022-10-06T00:03:48.036Z,2.55
2022-10-06T00:06:17.703Z,2.33
2022-10-06T00:08:46.928Z,2.97
2022-10-06T00:11:16.491Z,2.63
2022-10-06T00:13:44.672Z,2.80
2022-10-06T00:16:15.476Z,3.50
2022-10-06T00:18:44.516Z,3.00
2022-10-06T00:21:12.350Z,2.85
2022-10-06T00:23:40.261Z,2.95
2022-10-06T00:26:17.477Z,3.13
2022-10-06T00:28:48.691Z,3.15
2022-10-06T00:31:20.547Z,3.50
2022-10-06T00:33:50.973Z,2.97
2022-10-06T00:36:18.930Z,3.80
2022-10-06T00:38:47.143Z,3.30
2022-10-06T00:41:17.528Z,3.50
2022-10-06T00:43:45.708Z,3.30
2022-10-06T00:46:20.658Z,3.25
2022-10-06T00:48:56.779Z,3.60
2022-10-06T00:51:25.271Z,3.13
2022-10-06T00:53:53.514Z,3.92
2022-10-06T00:56:22.207Z,3.70
2022-10-06T00:58:50.992Z,3.58
2022-10-06T01:01:19.294Z,3.75
2022-10-06T01:03:58.847Z,3.60
2022-10-06T01:06:26.950Z,3.85
2022-10-06T01:08:55.761Z,3.10
2022-10-06T01:11:24.520Z,3.75
2022-10-06T01:13:52.818Z,3.63
2022-10-06T01:16:27.751Z,3.10
2022-10-06T01:18:57.168Z,3.10
2022-10-06T01:21:36.135Z,3.10
2022-10-06T01:24:07.371Z,2.60
2022-10-06T01:26:40.353Z,3.28
2022-10-06T01:29:08.931Z,3.07
2022-10-06T01:31:38.005Z,2.70
2022-10-06T01:34:06.699Z,2.95
2022-10-06T01:36:34.962Z,2.83
2022-10-06T01:39:02.954Z,2.88
2022-10-06T01:41:33.792Z,2.80
2022-10-06T01:44:03.335Z,2.42
2022-10-06T01:46:31.900Z,2.60
2022-10-06T01:49:00.722Z,2.58
2022-10-06T01:51:29.940Z,2.40
2022-10-06T01:53:59.330Z,2.70
2022-10-06T01:56:27.418Z,2.50
2022-10-06T01:58:55.606Z,2.38
2022-10-06T02:01:24.081Z,2.47
2022-10-06T02:03:56.156Z,2.90
2022-10-06T02:06:24.432Z,2.10
2022-10-06T02:08:52.758Z,2.50
2022-10-06T02:11:21.142Z,2.40
2022-10-06T02:13:50.541Z,2.28
2022-10-06T02:16:19.318Z,2.70
2022-10-06T02:18:47.877Z,2.60
2022-10-06T02:21:21.308Z,2.40
2022-10-06T02:23:52.462Z,2.40
2022-10-06T02:26:20.458Z,2.30
2022-10-06T02:28:50.991Z,2.28
2022-10-06T02:31:23.259Z,2.30
2022-10-06T02:33:55.437Z,2.53
2022-10-06T02:36:24.948Z,2.33
2022-10-06T02:38:52.832Z,2.13
2022-10-06T02:41:22.410Z,2.30
2022-10-06T02:43:52.327Z,2.60
2022-10-06T02:46:20.757Z,2.35
2022-10-06T02:48:54.394Z,2.67
2022-10-06T02:51:23.226Z,2.20
2022-10-06T02:53:51.631Z,2.60
2022-10-06T02:56:22.643Z,3.10
2022-10-06T02:58:52.236Z,2.22
2022-10-06T03:01:29.350Z,2.45
2022-10-06T03:04:01.005Z,2.55
2022-10-06T03:06:31.764Z,2.50
2022-10-06T03:09:13.828Z,2.47
2022-10-06T03:11:45.152Z,2.45
2022-10-06T03:14:21.871Z,2.78
2022-10-06T03:16:55.346Z,3.03
2022-10-06T03:19:27.462Z,2.88
2022-10-06T03:21:55.936Z,2.60
2022-10-06T03:24:33.529Z,2.90
2022-10-06T03:27:02.140Z,3.00
2022-10-06T03:29:31.679Z,2.90
2022-10-06T03:32:00.037Z,3.20
2022-10-06T03:34:29.517Z,3.13
2022-10-06T03:36:59.672Z,3.22
2022-10-06T03:39:30.001Z,3.28
2022-10-06T03:41:58.332Z,3.00
2022-10-06T03:44:27.176Z,2.80
2022-10-06T03:46:55.618Z,2.90
2022-10-06T03:49:27.039Z,3.13
2022-10-06T03:51:55.450Z,3.47
2022-10-06T03:54:28.789Z,3.28
2022-10-06T03:56:58.505Z,3.20
2022-10-06T03:59:29.529Z,3.20
2022-10-06T04:01:59.463Z,3.30
2022-10-06T04:04:31.770Z,3.13
2022-10-06T04:07:08.437Z,3.40
2022-10-06T04:09:37.255Z,3.00
2022-10-06T04:12:05.616Z,3.07
2022-10-06T04:14:39.024Z,3.80
2022-10-06T04:17:09.009Z,3.60
2022-10-06T04:19:42.003Z,3.80
2022-10-06T04:22:10.211Z,3.40
2022-10-06T04:24:38.226Z,3.40
2022-10-06T04:27:25.024Z,3.45
2022-10-06T04:30:06.339Z,3.72
2022-10-06T04:32:35.769Z,3.70
2022-10-06T04:35:04.642Z,3.50
2022-10-06T04:37:33.085Z,3.60
2022-10-06T04:40:01.727Z,3.60
2022-10-06T04:42:35.129Z,3.85
2022-10-06T04:45:09.284Z,4.00
2022-10-06T04:47:40.710Z,4.30
2022-10-06T04:50:10.374Z,4.63
2022-10-06T04:52:43.135Z,5.20
2022-10-06T04:55:11.794Z,5.18
2022-10-06T04:57:39.881Z,4.93
2022-10-06T05:00:39.502Z,5.50
2022-10-06T05:03:07.587Z,5.40
2022-10-06T05:05:36.445Z,5.82
2022-10-06T05:08:05.270Z,5.80
2022-10-06T05:10:33.156Z,5.60
2022-10-06T05:13:01.300Z,6.38
2022-10-06T05:15:29.541Z,6.07
2022-10-06T05:17:57.591Z,5.75
2022-10-06T05:20:25.785Z,5.90
2022-10-06T05:22:54.844Z,5.50
2022-10-06T05:25:23.318Z,5.47
2022-10-06T05:27:51.343Z,5.30
2022-10-06T05:30:19.676Z,6.15
2022-10-06T05:32:50.776Z,5.90
2022-10-06T05:35:19.416Z,6.10
2022-10-06T05:37:47.693Z,6.82
2022-10-06T05:40:15.946Z,6.27
2022-10-06T05:42:43.971Z,5.78
2022-10-06T05:45:12.125Z,5.53
2022-10-06T05:47:42.494Z,5.45
2022-10-06T05:50:10.629Z,5.40
2022-10-06T05:52:38.819Z,5.17
2022-10-06T05:55:07.575Z,4.80
2022-10-06T05:57:35.844Z,4.85
2022-10-06T06:00:05.203Z,4.38
2022-10-06T06:02:41.252Z,4.30
2022-10-06T06:05:12.226Z,4.13
2022-10-06T06:07:41.019Z,4.30
2022-10-06T06:10:10.300Z,3.90
2022-10-06T06:12:38.286Z,3.92
2022-10-06T06:15:49.491Z,3.55
2022-10-06T06:18:18.886Z,3.90
2022-10-06T06:20:56.732Z,3.90
2022-10-06T06:23:24.970Z,3.35
2022-10-06T06:26:04.768Z,3.30
2022-10-06T06:28:37.567Z,3.42
2022-10-06T06:31:20.261Z,3.30
2022-10-06T06:33:56.211Z,3.25
2022-10-06T06:36:48.082Z,3.47
2022-10-06T06:39:19.987Z,3.25
2022-10-06T06:41:50.289Z,3.60
2022-10-06T06:44:41.347Z,2.50
2022-10-06T06:47:41.735Z,2.70
2022-10-06T06:50:11.177Z,2.40
2022-10-06T06:52:42.355Z,2.50
2022-10-06T06:55:12.797Z,2.20
2022-10-06T06:57:42.792Z,2.20
2022-10-06T07:00:11.179Z,2.30
2022-10-06T07:02:40.456Z,2.35
2022-10-06T07:05:11.182Z,2.70
2022-10-06T07:07:40.135Z,2.88
2022-10-06T07:10:09.776Z,2.77
2022-10-06T07:12:38.442Z,2.63
2022-10-06T07:15:25.266Z,2.72
2022-10-06T07:18:13.549Z,2.70
2022-10-06T07:21:00.002Z,2.70
2022-10-06T07:23:47.481Z,2.97
2022-10-06T07:26:18.925Z,2.60
2022-10-06T07:28:49.410Z,2.50
2022-10-06T07:31:19.571Z,2.78
2022-10-06T07:33:49.016Z,2.78
2022-10-06T07:36:17.574Z,2.50
2022-10-06T07:38:48.163Z,2.50
2022-10-06T07:41:20.246Z,2.78
2022-10-06T07:44:10.425Z,2.58
2022-10-06T07:46:39.697Z,2.78
2022-10-06T07:49:17.741Z,2.60
2022-10-06T07:51:46.387Z,2.30
2022-10-06T07:54:14.456Z,2.70
2022-10-06T07:57:11.664Z,2.90
2022-10-06T07:59:41.567Z,2.50
2022-10-06T08:02:10.783Z,2.30
2022-10-06T08:04:38.892Z,2.50
2022-10-06T08:07:11.096Z,2.63
2022-10-06T08:09:39.161Z,2.30
2022-10-06T08:12:26.997Z,2.83
2022-10-06T08:14:55.501Z,2.33
2022-10-06T08:17:23.916Z,2.30
2022-10-06T08:19:52.285Z,2.38
2022-10-06T08:22:20.382Z,2.28
2022-10-06T08:25:05.235Z,2.28
2022-10-06T08:27:36.234Z,2.07
2022-10-06T08:30:07.837Z,2.38
2022-10-06T08:32:36.119Z,2.30
2022-10-06T08:35:04.577Z,2.42
2022-10-06T08:37:32.717Z,2.30
2022-10-06T08:40:00.753Z,2.30
2022-10-06T08:42:42.866Z,2.00
2022-10-06T08:45:38.684Z,2.30
2022-10-06T08:48:24.613Z,2.20
2022-10-06T08:51:19.088Z,2.00
2022-10-06T08:54:05.461Z,2.17
2022-10-06T08:57:14.935Z,2.00
2022-10-06T08:59:46.742Z,2.10
2022-10-06T09:02:31.213Z,2.25
2022-10-06T09:05:03.861Z,1.95
2022-10-06T09:08:16.717Z,2.47
2022-10-06T09:10:54.712Z,2.17
2022-10-06T09:13:30.936Z,2.20
2022-10-06T09:16:11.010Z,2.00
2022-10-06T09:19:08.849Z,1.92
2022-10-06T09:21:52.774Z,1.83
2022-10-06T09:24:40.512Z,2.00
2022-10-06T09:27:33.895Z,2.25
2022-10-06T09:30:05.017Z,2.30
2022-10-06T09:32:35.109Z,2.10
2022-10-06T09:35:20.809Z,2.30
2022-10-06T09:37:57.682Z,2.15
2022-10-06T09:40:53.362Z,2.33
2022-10-06T09:43:31.790Z,1.98
2022-10-06T09:46:34.429Z,2.10
2022-10-06T09:49:20.415Z,1.90
2022-10-06T09:52:16.779Z,2.10
2022-10-06T09:54:45.707Z,2.05
2022-10-06T09:57:27.240Z,2.00
2022-10-06T09:59:55.408Z,1.95
2022-10-06T10:02:37.592Z,2.20
2022-10-06T10:05:18.983Z,2.00
2022-10-06T10:08:01.276Z,1.75
2022-10-06T10:10:29.401Z,2.25
2022-10-06T10:12:59.686Z,1.90
2022-10-06T10:15:35.652Z,1.80
2022-10-06T10:18:11.577Z,2.00
2022-10-06T10:20:56.243Z,2.10
2022-10-06T10:23:31.083Z,2.08
2022-10-06T10:26:27.516Z,1.90
2022-10-06T10:29:49.609Z,1.83
2022-10-06T10:32:39.887Z,1.73
2022-10-06T10:35:31.034Z,1.90
2022-10-06T10:38:21.681Z,2.00
2022-10-06T10:40:54.591Z,1.75
2022-10-06T10:43:34.024Z,1.83
2022-10-06T10:46:27.654Z,1.60
2022-10-06T10:49:19.341Z,1.80
2022-10-06T10:51:57.677Z,1.80
2022-10-06T10:54:47.022Z,2.03
2022-10-06T10:57:18.707Z,1.80
2022-10-06T11:00:02.216Z,2.08
2022-10-06T11:02:31.080Z,2.00
2022-10-06T11:05:30.649Z,1.80
2022-10-06T11:08:12.495Z,1.77
2022-10-06T11:11:01.242Z,2.00
2022-10-06T11:13:50.125Z,1.70
2022-10-06T11:16:44.256Z,1.85
2022-10-06T11:19:35.948Z,1.75
2022-10-06T11:22:19.074Z,1.98
2022-10-06T11:24:59.301Z,2.17
2022-10-06T11:27:54.228Z,2.10
2022-10-06T11:30:27.405Z,2.00
2022-10-06T11:33:21.119Z,2.00
2022-10-06T11:36:12.580Z,2.00
2022-10-06T11:38:50.072Z,2.33
2022-10-06T11:41:35.087Z,2.30
2022-10-06T11:44:32.996Z,2.13
2022-10-06T11:47:09.304Z,1.90
2022-10-06T11:49:54.939Z,2.85
2022-10-06T11:52:23.172Z,2.07
2022-10-06T11:54:55.634Z,1.80
2022-10-06T11:57:30.978Z,2.13
2022-10-06T12:00:05.010Z,1.90
2022-10-06T12:02:37.143Z,1.85
2022-10-06T12:05:35.101Z,1.87
2022-10-06T12:07:59.529Z,2.17
2022-10-06T12:10:30.396Z,2.33
2022-10-06T12:14:12.411Z,2.15
2022-10-06T12:19:27.609Z,2.20
2022-10-06T12:22:17.352Z,2.40
2022-10-06T12:25:38.017Z,2.10
2022-10-06T12:28:39.443Z,2.22
2022-10-06T12:31:20.327Z,2.17
2022-10-06T12:33:49.332Z,2.63
2022-10-06T12:36:31.874Z,2.00
2022-10-06T12:39:05.530Z,2.47
2022-10-06T12:42:02.402Z,2.70
2022-10-06T12:44:40.105Z,2.45
2022-10-06T12:47:22.762Z,2.00
2022-10-06T12:49:55.539Z,2.17
2022-10-06T12:52:45.292Z,2.10
2022-10-06T12:55:28.047Z,2.00
2022-10-06T12:57:56.277Z,2.17
2022-10-06T13:00:41.149Z,2.37
2022-10-06T13:03:24.695Z,2.30
2022-10-06T13:05:57.279Z,1.98
2022-10-06T13:08:34.236Z,2.05
2022-10-06T13:11:28.427Z,2.00
2022-10-06T13:13:59.736Z,1.93
2022-10-06T13:16:33.451Z,1.88
2022-10-06T13:19:01.898Z,1.90
2022-10-06T13:21:30.903Z,1.90
2022-10-06T13:23:59.506Z,1.77
2022-10-06T13:26:35.127Z,2.00
2022-10-06T13:29:03.306Z,2.00
2022-10-06T13:31:35.086Z,1.90
2022-10-06T13:34:12.126Z,1.85
2022-10-06T13:36:45.750Z,2.03
2022-10-06T13:39:20.099Z,1.93
2022-10-06T13:41:55.111Z,2.10
2022-10-06T13:44:29.268Z,2.00
2022-10-06T13:47:02.608Z,1.85
2022-10-06T13:49:50.368Z,2.40
2022-10-06T13:52:49.800Z,2.00
2022-10-06T13:55:30.084Z,2.10
2022-10-06T13:58:02.033Z,2.10
2022-10-06T14:00:46.597Z,2.17
2022-10-06T14:06:22.657Z,2.30
2022-10-06T14:08:55.750Z,2.47
2022-10-06T14:11:32.890Z,2.38
2022-10-06T14:14:06.528Z,2.10
2022-10-06T14:16:37.555Z,2.00
2022-10-06T14:19:06.972Z,1.90
2022-10-06T14:21:41.979Z,2.17
2022-10-06T14:24:20.135Z,2.00
2022-10-06T14:26:50.313Z,2.30
2022-10-06T14:29:19.622Z,2.10
2022-10-06T14:31:48.965Z,1.90
2022-10-06T14:34:19.833Z,2.00
2022-10-06T14:36:53.822Z,2.00
2022-10-06T14:39:22.324Z,1.92
2022-10-06T14:41:50.665Z,2.20
2022-10-06T14:44:19.675Z,2.10
2022-10-06T14:46:51.448Z,2.00
2022-10-06T14:49:19.917Z,2.00
2022-10-06T14:51:47.938Z,1.90
2022-10-06T14:54:16.154Z,1.85
2022-10-06T14:56:53.702Z,1.87
2022-10-06T14:59:22.949Z,1.90
2022-10-06T15:01:51.150Z,2.00
2022-10-06T15:04:21.179Z,2.20
2022-10-06T15:07:07.550Z,2.00
2022-10-06T15:09:36.469Z,2.07
2022-10-06T15:12:04.802Z,2.03
2022-10-06T15:14:35.470Z,2.13
2022-10-06T15:17:03.831Z,1.80
2022-10-06T15:19:31.737Z,2.20
2022-10-06T15:22:01.325Z,2.20
2022-10-06T15:24:29.370Z,2.17
2022-10-06T15:27:15.966Z,2.20
2022-10-06T15:29:44.086Z,2.22
2022-10-06T15:32:12.396Z,2.00
2022-10-06T15:34:40.554Z,2.20
2022-10-06T15:37:09.002Z,2.40
2022-10-06T15:39:38.126Z,2.40
2022-10-06T15:42:06.789Z,2.20
2022-10-06T15:44:35.562Z,2.30
2022-10-06T15:47:05.691Z,2.40
2022-10-06T15:49:38.592Z,2.40
2022-10-06T15:52:07.269Z,2.60
2022-10-06T15:54:38.352Z,2.58
2022-10-06T15:57:13.879Z,2.53
2022-10-06T15:59:44.865Z,2.70
2022-10-06T16:02:17.865Z,2.85
2022-10-06T16:05:10.882Z,3.28
2022-10-06T16:07:39.110Z,3.10
2022-10-06T16:10:07.411Z,3.47
2022-10-06T16:12:35.592Z,3.33
2022-10-06T16:15:04.503Z,3.03
2022-10-06T16:17:32.927Z,3.00
2022-10-06T16:20:00.969Z,3.00
2022-10-06T16:22:29.626Z,3.33
2022-10-06T16:24:57.594Z,3.67
2022-10-06T16:27:28.009Z,3.55
2022-10-06T16:29:58.215Z,3.85
2022-10-06T16:32:26.402Z,3.97
2022-10-06T16:34:54.488Z,4.40
2022-10-06T16:37:22.642Z,4.33
2022-10-06T16:39:50.515Z,4.35
2022-10-06T16:42:18.456Z,5.10
2022-10-06T16:44:46.645Z,5.15
2022-10-06T16:47:14.765Z,4.65
2022-10-06T16:49:42.823Z,4.70
2022-10-06T16:52:10.794Z,4.95
2022-10-06T16:54:38.828Z,5.03
2022-10-06T16:57:07.955Z,5.20
2022-10-06T16:59:36.036Z,5.40
2022-10-06T17:02:04.161Z,6.03
2022-10-06T17:04:32.152Z,5.70
2022-10-06T17:07:00.481Z,5.50
2022-10-06T17:09:30.077Z,5.13
2022-10-06T17:12:02.917Z,5.00
2022-10-06T17:14:32.553Z,5.20
2022-10-06T17:17:00.898Z,5.03
2022-10-06T17:19:31.022Z,4.97
2022-10-06T17:22:00.169Z,4.28
2022-10-06T17:24:31.865Z,4.50
2022-10-06T17:26:59.924Z,4.60
2022-10-06T17:29:28.017Z,4.82
2022-10-06T17:32:00.459Z,4.40
2022-10-06T17:34:32.778Z,4.22
2022-10-06T17:37:03.045Z,4.57
2022-10-06T17:39:31.242Z,4.50
2022-10-06T17:41:59.302Z,4.70
2022-10-06T17:44:28.895Z,4.40
2022-10-06T17:47:00.871Z,3.80
2022-10-06T17:49:33.060Z,4.10
2022-10-06T17:52:01.464Z,3.70
2022-10-06T17:54:32.123Z,3.80
2022-10-06T17:57:00.287Z,3.83
2022-10-06T17:59:31.072Z,4.28
2022-10-06T18:02:01.615Z,3.95
2022-10-06T18:04:29.859Z,4.50
2022-10-06T18:06:58.547Z,3.97
2022-10-06T18:09:26.789Z,4.40
2022-10-06T18:11:59.913Z,4.68
2022-10-06T18:14:32.723Z,4.90
2022-10-06T18:17:03.029Z,4.70
2022-10-06T18:19:34.252Z,4.38
2022-10-06T18:22:10.926Z,4.90
2022-10-06T18:24:40.492Z,5.20
2022-10-06T18:27:09.584Z,5.18
2022-10-06T18:29:39.426Z,4.90
2022-10-06T18:37:44.750Z,8.07
2022-10-06T18:40:15.247Z,9.63
2022-10-06T18:42:43.557Z,10.27
2022-10-06T18:45:35.455Z,11.70
2022-10-06T18:48:24.905Z,12.10
2022-10-06T18:51:02.703Z,13.43
2022-10-06T18:53:33.096Z,13.05
2022-10-06T18:56:01.321Z,11.17
2022-10-06T18:58:29.304Z,10.18
2022-10-06T19:00:57.413Z,10.25
2022-10-06T19:03:28.312Z,10.20
2022-10-06T19:05:56.508Z,9.43
2022-10-06T19:08:27.470Z,8.83
2022-10-06T19:11:13.907Z,8.30
2022-10-06T19:13:47.561Z,8.00
2022-10-06T19:16:16.589Z,7.72
2022-10-06T19:18:44.889Z,7.40
2022-10-06T19:21:15.763Z,6.80
2022-10-06T19:23:43.959Z,6.20
2022-10-06T19:26:13.859Z,6.45
2022-10-06T19:28:42.182Z,5.85
2022-10-06T19:31:20.438Z,5.75
2022-10-06T19:33:49.585Z,5.47
2022-10-06T19:36:18.120Z,5.35
2022-10-06T19:38:46.218Z,5.47
2022-10-06T19:41:32.954Z,5.03
2022-10-06T19:44:03.325Z,4.63
2022-10-06T19:46:31.450Z,4.40
2022-10-06T19:49:06.017Z,4.93
2022-10-06T19:51:37.184Z,4.80
2022-10-06T19:54:05.761Z,4.78
2022-10-06T19:56:33.872Z,5.20
2022-10-06T19:59:03.071Z,5.00
2022-10-06T20:01:31.699Z,4.95
2022-10-06T20:03:59.861Z,5.13
2022-10-06T20:06:28.845Z,4.72
2022-10-06T20:09:08.399Z,4.88
2022-10-06T20:11:38.828Z,4.83
2022-10-06T20:14:11.582Z,5.38
2022-10-06T20:16:41.767Z,5.30
2022-10-06T20:19:13.481Z,4.68
2022-10-06T20:21:42.341Z,5.32
2022-10-06T20:24:22.982Z,4.80
2022-10-06T20:26:52.649Z,4.72
2022-10-06T20:29:24.119Z,4.82
2022-10-06T20:31:56.549Z,5.10
2022-10-06T20:34:27.270Z,5.07
2022-10-06T20:37:00.184Z,5.10
2022-10-06T20:39:51.583Z,5.00
2022-10-06T20:42:21.219Z,4.95
2022-10-06T20:44:49.482Z,5.20
2022-10-06T20:47:17.623Z,5.20
2022-10-06T20:49:48.327Z,5.00
2022-10-06T20:52:16.580Z,5.22
2022-10-06T20:54:44.540Z,5.30
2022-10-06T20:57:13.648Z,5.13
2022-10-06T20:59:46.223Z,4.88
2022-10-06T21:02:14.293Z,5.00
2022-10-06T21:04:44.193Z,5.00
2022-10-06T21:07:12.578Z,5.10
2022-10-06T21:09:40.699Z,4.90
2022-10-06T21:12:08.988Z,5.03
2022-10-06T21:14:37.849Z,4.63
2022-10-06T21:17:06.282Z,4.82
2022-10-06T21:19:38.276Z,5.10
2022-10-06T21:22:06.867Z,4.75
2022-10-06T21:24:34.822Z,5.07
2022-10-06T21:27:03.778Z,5.03
2022-10-06T21:29:31.724Z,4.47
2022-10-06T21:32:01.640Z,4.72
2022-10-06T21:34:29.875Z,4.68
2022-10-06T21:36:57.910Z,4.57
2022-10-06T21:39:25.996Z,4.20
2022-10-06T21:41:53.943Z,4.28
2022-10-06T21:44:22.124Z,4.70
2022-10-06T21:46:53.016Z,3.97
2022-10-06T21:49:23.471Z,4.30
2022-10-06T21:51:58.793Z,4.50
2022-10-06T21:54:26.834Z,4.95
2022-10-06T21:56:55.063Z,4.30
2022-10-06T21:59:23.135Z,4.70
2022-10-06T22:01:51.395Z,4.40
2022-10-06T22:04:19.510Z,4.57
2022-10-06T22:06:50.839Z,4.47
2022-10-06T22:09:20.981Z,4.72
2022-10-06T22:11:49.631Z,4.47
2022-10-06T22:14:19.610Z,4.90
2022-10-06T22:16:47.721Z,4.80
2022-10-06T22:19:18.249Z,5.10
2022-10-06T22:21:48.968Z,4.70
2022-10-06T22:24:20.431Z,4.78
2022-10-06T22:26:49.342Z,4.68
2022-10-06T22:29:19.597Z,4.85
2022-10-06T22:31:49.321Z,4.80
2022-10-06T22:34:20.845Z,5.03
2022-10-06T22:36:52.218Z,4.72
2022-10-06T22:39:27.640Z,5.43
2022-10-06T22:41:56.959Z,4.72
2022-10-06T22:44:28.900Z,5.00
2022-10-06T22:46:57.666Z,4.78
2022-10-06T22:49:29.321Z,5.20
2022-10-06T22:51:57.878Z,5.38
2022-10-06T22:54:30.651Z,5.13
2022-10-06T22:56:58.917Z,5.27
2022-10-06T22:59:27.103Z,5.30
2022-10-06T23:01:55.698Z,5.20
2022-10-06T23:04:23.797Z,5.30
2022-10-06T23:06:52.267Z,5.32
2022-10-06T23:09:20.638Z,5.10
2022-10-06T23:11:48.680Z,5.20
2022-10-06T23:14:16.769Z,5.30
2022-10-06T23:16:45.086Z,5.32
2022-10-06T23:19:15.236Z,4.80
2022-10-06T23:21:44.486Z,5.30
2022-10-06T23:24:13.354Z,5.60
2022-10-06T23:26:41.468Z,5.47
2022-10-06T23:29:12.642Z,5.70
2022-10-06T23:31:40.625Z,5.72
2022-10-06T23:34:08.635Z,5.37
2022-10-06T23:36:36.955Z,5.60
2022-10-06T23:39:04.887Z,5.70
2022-10-06T23:41:32.843Z,5.03
2022-10-06T23:44:00.789Z,5.10
2022-10-06T23:46:28.757Z,5.60
2022-10-06T23:48:56.724Z,5.63
2022-10-06T23:51:24.718Z,5.95
2022-10-06T23:53:52.886Z,5.47
2022-10-06T23:56:22.061Z,5.25
2022-10-06T23:58:49.785Z,5.30
